Kissho — JD3124 — position and weather

sailwx.info

Track history (hours):
 
Tides and Currents Weather Stations Pressure Air Temp Water Temp Dewpoint Dewpoint Depression Visibility Wind Speed Wind Dir Waves Ship Positions

Kissho

Last reported at 2016-Aug-27 07:32 UTC. Time now 2016-Aug-27 08:15 UTC.
Position N 35°36' E 139°51'.

Length 30 m.

Type: Tug. MMSI: 431002115.

Date/timePositionNaut miles runAvg speedWind from/ knotsBaromVisibWave heightAir tempDewpointWater temp
2016-Aug-27 07:32N 35°36' E 139°51'0 0.0
2016-Aug-27 06:32N 35°36' E 139°51'0 0.0
2016-Aug-27 04:32N 35°36' E 139°51'0 0.0
2016-Aug-27 03:32N 35°36' E 139°51'0 0.0
2016-Aug-27 02:26N 35°36' E 139°51'4 4.9
2016-Aug-27 01:33N 35°36' E 139°56'4 4.2
2016-Aug-27 00:31N 35°38' E 140°01'0 0.0
2016-Aug-26 23:29N 35°38' E 140°01'3 3.4
2016-Aug-26 22:32N 35°36' E 139°57'4 4.1
2016-Aug-26 21:32N 35°35' E 139°53'2 2.4
2016-Aug-26 20:31N 35°35' E 139°50'0 0.0
2016-Aug-26 19:31N 35°35' E 139°50'0 0.0
2016-Aug-26 18:28N 35°35' E 139°50'0 0.0
2016-Aug-26 17:31N 35°35' E 139°50'0 0.0
2016-Aug-26 16:28N 35°35' E 139°50'0 0.0
2016-Aug-26 15:28N 35°35' E 139°50'0 0.0
2016-Aug-26 14:28N 35°35' E 139°50'0 0.0
2016-Aug-26 13:31N 35°35' E 139°50'0 0.0
2016-Aug-26 12:25N 35°35' E 139°50'0 0.0
2016-Aug-26 11:04N 35°35' E 139°50'0 0.0
2016-Aug-26 10:28N 35°35' E 139°50'3 3.3
2016-Aug-26 09:33N 35°33' E 139°52'1110.3
2016-Aug-26 08:31N 35°23' E 139°49'3 2.8
2016-Aug-26 07:26N 35°20' E 139°50'8 9.3
2016-Aug-26 06:34N 35°28' E 139°49'11 5.3
2016-Aug-26 04:33N 35°36' E 139°57'4 3.5
2016-Aug-26 03:32N 35°38' E 140°01'0 0.0
2016-Aug-26 02:32N 35°38' E 140°01'3 3.4
2016-Aug-26 01:32N 35°36' E 139°57'4 3.6
2016-Aug-26 00:33N 35°35' E 139°53'3 2.9
2016-Aug-25 23:33N 35°35' E 139°50'2 1.7
2016-Aug-25 22:33N 35°36' E 139°51'0 0.1
2016-Aug-25 21:29N 35°36' E 139°51'0 0.0
2016-Aug-25 20:32N 35°36' E 139°51'0 0.0
2016-Aug-25 19:23N 35°36' E 139°51'0 0.0
2016-Aug-25 18:23N 35°36' E 139°51'0 0.0
2016-Aug-25 17:32N 35°36' E 139°51'0 0.0
2016-Aug-25 16:29N 35°36' E 139°51'0 0.0
2016-Aug-25 15:32N 35°36' E 139°51'0 0.1
2016-Aug-25 14:29N 35°36' E 139°51'0 0.1
2016-Aug-25 13:32N 35°36' E 139°51'0 0.0
2016-Aug-25 12:32N 35°36' E 139°51'0 0.0
2016-Aug-25 11:32N 35°36' E 139°51'0 0.0
2016-Aug-25 10:32N 35°36' E 139°51'0 0.1
2016-Aug-25 09:32N 35°36' E 139°51'0 0.0
2016-Aug-25 08:32N 35°36' E 139°51'0 0.1
2016-Aug-25 07:33N 35°36' E 139°51'6 6.3
2016-Aug-25 06:33N 35°36' E 139°59'2 0.9
2016-Aug-25 04:33N 35°37' E 140°01'4 3.7
2016-Aug-25 03:33N 35°36' E 139°56'3 3.0
2016-Aug-25 02:33N 35°35' E 139°53'3 2.5
2016-Aug-25 01:31N 35°35' E 139°50'0 0.0
2016-Aug-25 00:28N 35°35' E 139°50'0 0.0
2016-Aug-24 23:31N 35°35' E 139°50'0 0.2
2016-Aug-24 22:32N 35°35' E 139°50'0 0.1
2016-Aug-24 21:23N 35°35' E 139°50'0 0.0
2016-Aug-24 20:29N 35°35' E 139°50'0 0.0
2016-Aug-24 19:32N 35°35' E 139°50'0 0.0
2016-Aug-24 18:32N 35°35' E 139°50'0 0.0
2016-Aug-24 17:32N 35°35' E 139°50'0 0.0
2016-Aug-24 16:32N 35°35' E 139°50'0 0.0
2016-Aug-24 15:32N 35°35' E 139°50'0 0.0
2016-Aug-24 14:32N 35°35' E 139°50'0 0.0
2016-Aug-24 13:20N 35°35' E 139°50'0 0.0
2016-Aug-24 12:32N 35°35' E 139°50'0 0.0
2016-Aug-24 11:32N 35°35' E 139°50'0 0.0
2016-Aug-24 10:20N 35°35' E 139°50'0 0.0
2016-Aug-24 09:23N 35°35' E 139°50'1 0.7
2016-Aug-24 08:33N 35°34' E 139°50'0 0.0
2016-Aug-24 07:30N 35°34' E 139°50'0 0.0
2016-Aug-24 06:33N 35°34' E 139°50'0 0.0
2016-Aug-24 04:33N 35°34' E 139°50'0 0.1
2016-Aug-24 03:30N 35°34' E 139°50'1 0.8
2016-Aug-24 02:33N 35°35' E 139°49'0 0.5
2016-Aug-24 01:30N 35°35' E 139°50'0 0.0
2016-Aug-24 00:33N 35°35' E 139°50'0 0.0
2016-Aug-23 23:30N 35°35' E 139°49'0 0.0
2016-Aug-23 22:33N 35°35' E 139°49'0 0.0
2016-Aug-23 21:30N 35°35' E 139°49'0 0.0
2016-Aug-23 20:27N 35°35' E 139°49'0 0.0
2016-Aug-23 19:33N 35°35' E 139°49'0 0.0
2016-Aug-23 18:33N 35°35' E 139°49'0 0.0
2016-Aug-23 17:30N 35°35' E 139°49'0 0.0
2016-Aug-23 16:33N 35°35' E 139°49'0 0.0
2016-Aug-23 15:24N 35°35' E 139°49'0 0.0
2016-Aug-23 14:30N 35°35' E 139°49'0 0.0
2016-Aug-23 13:33N 35°35' E 139°49'0 0.0
2016-Aug-23 12:30N 35°35' E 139°49'0 0.0
2016-Aug-23 11:27N 35°35' E 139°49'0 0.0
2016-Aug-23 10:33N 35°35' E 139°49'0 0.0
2016-Aug-23 09:33N 35°35' E 139°49'0 0.0
2016-Aug-23 08:33N 35°35' E 139°49'1 0.6
2016-Aug-23 07:31N 35°35' E 139°50'0 0.0
2016-Aug-23 06:31N 35°35' E 139°50'0 0.4
2016-Aug-23 05:33N 35°35' E 139°50'0 0.4
2016-Aug-23 04:33N 35°35' E 139°50'0 0.0
2016-Aug-23 03:27N 35°35' E 139°49'0 0.0
2016-Aug-23 02:33N 35°35' E 139°49'0 0.1
2016-Aug-23 01:30N 35°35' E 139°49'0 0.1
2016-Aug-23 00:27N 35°35' E 139°49'1 1.0
2016-Aug-22 23:33N 35°35' E 139°50'2 2.0
2016-Aug-22 22:30N 35°37' E 139°48'0 0.1
2016-Aug-22 21:27N 35°37' E 139°48'4 4.0
2016-Aug-22 20:33N 35°36' E 139°53'7 5.8
2016-Aug-22 19:24N 35°41' E 139°59'0 0.0
2016-Aug-22 18:27N 35°41' E 139°59'0 0.0
2016-Aug-22 17:33N 35°41' E 139°59'0 0.0
2016-Aug-22 16:33N 35°41' E 139°59'0 0.0
2016-Aug-22 15:33N 35°41' E 139°59'0 0.0
2016-Aug-22 14:33N 35°41' E 139°59'0 0.0
2016-Aug-22 13:21N 35°41' E 139°59'0 0.0
2016-Aug-22 12:33N 35°41' E 139°59'0 0.0
2016-Aug-22 11:33N 35°41' E 139°59'0 0.0
2016-Aug-22 10:30N 35°41' E 139°59'0 0.0
2016-Aug-22 09:30N 35°41' E 139°59'0 0.0
2016-Aug-22 08:33N 35°41' E 139°59'0 0.0
2016-Aug-22 07:33N 35°41' E 139°59'0 0.0
2016-Aug-22 06:30N 35°41' E 139°59'0 0.0
2016-Aug-22 05:27N 35°41' E 139°59'0 0.0
2016-Aug-22 04:33N 35°41' E 139°59'0 0.0
2016-Aug-22 03:27N 35°41' E 139°59'0 0.0
2016-Aug-22 02:33N 35°41' E 139°59'0 0.0
2016-Aug-22 01:27N 35°41' E 139°59'0 0.0
2016-Aug-22 00:33N 35°41' E 139°59'0 0.0
2016-Aug-21 23:33N 35°41' E 139°59'0 0.0
2016-Aug-21 22:27N 35°41' E 139°59'0 0.0
2016-Aug-21 21:21N 35°41' E 139°59'0 0.0
2016-Aug-21 20:33N 35°41' E 139°59'0 0.0
2016-Aug-21 19:30N 35°41' E 139°59'0 0.0
2016-Aug-21 18:33N 35°41' E 139°59'0 0.0
2016-Aug-21 17:30N 35°41' E 139°59'0 0.0
2016-Aug-21 16:33N 35°41' E 139°59'0 0.0
2016-Aug-21 15:33N 35°41' E 139°59'0 0.0
2016-Aug-21 14:27N 35°41' E 139°59'0 0.0
2016-Aug-21 13:33N 35°41' E 139°59'0 0.0
2016-Aug-21 12:21N 35°41' E 139°59'0 0.0
2016-Aug-21 11:27N 35°41' E 139°59'0 0.0
2016-Aug-21 10:33N 35°41' E 139°59'0 0.0
2016-Aug-21 09:33N 35°41' E 139°59'0 0.0
2016-Aug-21 08:33N 35°41' E 139°59'0 0.0
2016-Aug-21 07:27N 35°41' E 139°59'0 0.0
2016-Aug-21 06:33N 35°41' E 139°59'0 0.0
2016-Aug-21 05:33N 35°41' E 139°59'0 0.0
2016-Aug-21 04:33N 35°41' E 139°59'0 0.0
2016-Aug-21 03:30N 35°41' E 139°59'0 0.0
2016-Aug-21 02:33N 35°41' E 139°59'8 7.9
2016-Aug-21 01:33N 35°36' E 139°51'2 1.6
2016-Aug-21 00:32N 35°37' E 139°49'1 1.4
2016-Aug-20 23:33N 35°36' E 139°50'1 1.1
2016-Aug-20 22:33N 35°35' E 139°49'0 0.0
2016-Aug-20 21:29N 35°35' E 139°49'0 0.0
2016-Aug-20 20:32N 35°35' E 139°49'0 0.0
2016-Aug-20 19:33N 35°35' E 139°49'0 0.0
2016-Aug-20 18:29N 35°35' E 139°49'0 0.0
2016-Aug-20 17:32N 35°35' E 139°49'0 0.0
2016-Aug-20 16:32N 35°35' E 139°49'0 0.0
2016-Aug-20 15:29N 35°35' E 139°49'0 0.0
2016-Aug-20 14:32N 35°35' E 139°49'0 0.0
2016-Aug-20 13:30N 35°35' E 139°49'0 0.0
2016-Aug-20 12:27N 35°35' E 139°49'0 0.0
2016-Aug-20 11:32N 35°35' E 139°49'0 0.0
2016-Aug-20 10:32N 35°35' E 139°49'0 0.0
2016-Aug-20 09:32N 35°35' E 139°49'0 0.0
2016-Aug-20 08:33N 35°35' E 139°49'0 0.0
2016-Aug-20 07:33N 35°35' E 139°49'1 0.8
2016-Aug-20 06:33N 35°35' E 139°50'1 0.9
2016-Aug-20 05:33N 35°36' E 139°51'5 4.7
2016-Aug-20 04:33N 35°36' E 139°57'4 3.3
2016-Aug-20 03:30N 35°38' E 140°01'0 0.1
2016-Aug-20 02:30N 35°38' E 140°01'3 3.4
2016-Aug-20 01:33N 35°36' E 139°58'3 3.3
2016-Aug-20 00:33N 35°35' E 139°54'3 3.1
2016-Aug-19 23:33N 35°35' E 139°50'1 1.2
2016-Aug-19 22:30N 35°36' E 139°51'0 0.0
2016-Aug-19 21:33N 35°36' E 139°51'2 1.8
2016-Aug-19 20:32N 35°37' E 139°49'0 0.0
2016-Aug-19 19:32N 35°37' E 139°49'0 0.0
2016-Aug-19 18:29N 35°37' E 139°49'0 0.0
2016-Aug-19 17:29N 35°37' E 139°49'0 0.0
2016-Aug-19 16:29N 35°37' E 139°49'0 0.0
2016-Aug-19 15:32N 35°37' E 139°49'0 0.0
2016-Aug-19 14:32N 35°37' E 139°49'0 0.0
2016-Aug-19 13:29N 35°37' E 139°49'0 0.0
2016-Aug-19 12:32N 35°37' E 139°49'0 0.0
2016-Aug-19 11:20N 35°37' E 139°49'0 0.0
2016-Aug-19 10:20N 35°37' E 139°49'1 0.8
2016-Aug-19 09:33N 35°37' E 139°50'7 7.0
2016-Aug-19 08:32N 35°36' E 139°58'3 2.6
2016-Aug-19 07:31N 35°38' E 140°01'0 0.0
2016-Aug-19 06:28N 35°38' E 140°01'4 4.4
2016-Aug-19 05:33N 35°36' E 139°56'4 4.3
2016-Aug-19 04:33N 35°35' E 139°51'1 1.3
2016-Aug-19 03:31N 35°35' E 139°49'2 1.8
2016-Aug-19 02:32N 35°36' E 139°51'5 5.0
2016-Aug-19 01:32N 35°36' E 139°58'3 3.2
2016-Aug-19 00:34N 35°38' E 140°01'0 0.1
2016-Aug-18 23:34N 35°38' E 140°01'4 4.1
2016-Aug-18 22:33N 35°35' E 139°57'6 5.6
2016-Aug-18 21:32N 35°35' E 139°49'0 0.0
2016-Aug-18 20:33N 35°35' E 139°49'0 0.0
2016-Aug-18 19:30N 35°35' E 139°49'0 0.0
2016-Aug-18 18:33N 35°35' E 139°49'0 0.0
2016-Aug-18 17:24N 35°35' E 139°49'0 0.0
2016-Aug-18 16:33N 35°35' E 139°49'0 0.0
2016-Aug-18 15:33N 35°35' E 139°49'0 0.0
2016-Aug-18 14:33N 35°35' E 139°49'0 0.0
2016-Aug-18 13:33N 35°35' E 139°49'0 0.0
2016-Aug-18 12:33N 35°35' E 139°49'0 0.0
2016-Aug-18 11:33N 35°35' E 139°49'0 0.0
2016-Aug-18 10:33N 35°35' E 139°49'0 0.0
2016-Aug-18 09:12N 35°35' E 139°49'0 0.0
2016-Aug-18 08:30N 35°35' E 139°49'0 0.0
2016-Aug-18 07:33N 35°35' E 139°49'0 0.0
2016-Aug-18 06:24N 35°35' E 139°49'3 3.3
2016-Aug-18 05:33N 35°35' E 139°53'7 6.7
2016-Aug-18 04:33N 35°37' E 140°01'1 0.9
2016-Aug-18 03:33N 35°38' E 140°01'0 0.1
2016-Aug-18 02:31N 35°37' E 140°01'3 3.6
2016-Aug-18 01:33N 35°36' E 139°57'3 2.8
2016-Aug-18 00:32N 35°36' E 139°54'3 3.1
2016-Aug-17 23:33N 35°35' E 139°50'1 1.4
2016-Aug-17 22:34N 35°35' E 139°52'6 6.2
2016-Aug-17 21:33N 35°38' E 139°59'3 3.3
2016-Aug-17 20:33N 35°41' E 139°58'1 0.5
2016-Aug-17 19:30N 35°41' E 139°59'0 0.0
2016-Aug-17 18:30N 35°41' E 139°59'0 0.0
2016-Aug-17 17:30N 35°41' E 139°59'0 0.0
2016-Aug-17 16:30N 35°41' E 139°59'0 0.0
2016-Aug-17 15:33N 35°41' E 139°59'0 0.0
2016-Aug-17 14:30N 35°41' E 139°59'0 0.0
2016-Aug-17 13:30N 35°41' E 139°59'0 0.0
2016-Aug-17 12:24N 35°41' E 139°59'0 0.0
2016-Aug-17 11:21N 35°41' E 139°59'0 0.0
2016-Aug-17 10:30N 35°41' E 139°59'0 0.0
2016-Aug-17 09:24N 35°41' E 139°59'0 0.0
2016-Aug-17 08:12N 35°41' E 139°59'  
Track history (hours):
 
Tides and Currents Weather Stations Pressure Air Temp Water Temp Dewpoint Dewpoint Depression Visibility Wind Speed Wind Dir Waves Ship Positions

Kissho

Last reported at 2016-Aug-27 07:32 UTC. Time now 2016-Aug-27 08:15 UTC.
Position N 35°36' E 139°51'.

Length 30 m.

Type: Tug. MMSI: 431002115.

Date/timePositionNaut miles runAvg speedWind from/ knotsBaromVisibWave heightAir tempDewpointWater temp
2016-Aug-27 07:32N 35°36' E 139°51'0 0.0
2016-Aug-27 06:32N 35°36' E 139°51'0 0.0
2016-Aug-27 04:32N 35°36' E 139°51'0 0.0
2016-Aug-27 03:32N 35°36' E 139°51'0 0.0
2016-Aug-27 02:26N 35°36' E 139°51'4 4.9
2016-Aug-27 01:33N 35°36' E 139°56'4 4.2
2016-Aug-27 00:31N 35°38' E 140°01'0 0.0
2016-Aug-26 23:29N 35°38' E 140°01'3 3.4
2016-Aug-26 22:32N 35°36' E 139°57'4 4.1
2016-Aug-26 21:32N 35°35' E 139°53'2 2.4
2016-Aug-26 20:31N 35°35' E 139°50'0 0.0
2016-Aug-26 19:31N 35°35' E 139°50'0 0.0
2016-Aug-26 18:28N 35°35' E 139°50'0 0.0
2016-Aug-26 17:31N 35°35' E 139°50'0 0.0
2016-Aug-26 16:28N 35°35' E 139°50'0 0.0
2016-Aug-26 15:28N 35°35' E 139°50'0 0.0
2016-Aug-26 14:28N 35°35' E 139°50'0 0.0
2016-Aug-26 13:31N 35°35' E 139°50'0 0.0
2016-Aug-26 12:25N 35°35' E 139°50'0 0.0
2016-Aug-26 11:04N 35°35' E 139°50'0 0.0
2016-Aug-26 10:28N 35°35' E 139°50'3 3.3
2016-Aug-26 09:33N 35°33' E 139°52'1110.3
2016-Aug-26 08:31N 35°23' E 139°49'3 2.8
2016-Aug-26 07:26N 35°20' E 139°50'8 9.3
2016-Aug-26 06:34N 35°28' E 139°49'11 5.3
2016-Aug-26 04:33N 35°36' E 139°57'4 3.5
2016-Aug-26 03:32N 35°38' E 140°01'0 0.0
2016-Aug-26 02:32N 35°38' E 140°01'3 3.4
2016-Aug-26 01:32N 35°36' E 139°57'4 3.6
2016-Aug-26 00:33N 35°35' E 139°53'3 2.9
2016-Aug-25 23:33N 35°35' E 139°50'2 1.7
2016-Aug-25 22:33N 35°36' E 139°51'0 0.1
2016-Aug-25 21:29N 35°36' E 139°51'0 0.0
2016-Aug-25 20:32N 35°36' E 139°51'0 0.0
2016-Aug-25 19:23N 35°36' E 139°51'0 0.0
2016-Aug-25 18:23N 35°36' E 139°51'0 0.0
2016-Aug-25 17:32N 35°36' E 139°51'0 0.0
2016-Aug-25 16:29N 35°36' E 139°51'0 0.0
2016-Aug-25 15:32N 35°36' E 139°51'0 0.1
2016-Aug-25 14:29N 35°36' E 139°51'0 0.1
2016-Aug-25 13:32N 35°36' E 139°51'0 0.0
2016-Aug-25 12:32N 35°36' E 139°51'0 0.0
2016-Aug-25 11:32N 35°36' E 139°51'0 0.0
2016-Aug-25 10:32N 35°36' E 139°51'0 0.1
2016-Aug-25 09:32N 35°36' E 139°51'0 0.0
2016-Aug-25 08:32N 35°36' E 139°51'0 0.1
2016-Aug-25 07:33N 35°36' E 139°51'6 6.3
2016-Aug-25 06:33N 35°36' E 139°59'2 0.9
2016-Aug-25 04:33N 35°37' E 140°01'4 3.7
2016-Aug-25 03:33N 35°36' E 139°56'3 3.0
2016-Aug-25 02:33N 35°35' E 139°53'3 2.5
2016-Aug-25 01:31N 35°35' E 139°50'0 0.0
2016-Aug-25 00:28N 35°35' E 139°50'0 0.0
2016-Aug-24 23:31N 35°35' E 139°50'0 0.2
2016-Aug-24 22:32N 35°35' E 139°50'0 0.1
2016-Aug-24 21:23N 35°35' E 139°50'0 0.0
2016-Aug-24 20:29N 35°35' E 139°50'0 0.0
2016-Aug-24 19:32N 35°35' E 139°50'0 0.0
2016-Aug-24 18:32N 35°35' E 139°50'0 0.0
2016-Aug-24 17:32N 35°35' E 139°50'0 0.0
2016-Aug-24 16:32N 35°35' E 139°50'0 0.0
2016-Aug-24 15:32N 35°35' E 139°50'0 0.0
2016-Aug-24 14:32N 35°35' E 139°50'0 0.0
2016-Aug-24 13:20N 35°35' E 139°50'0 0.0
2016-Aug-24 12:32N 35°35' E 139°50'0 0.0
2016-Aug-24 11:32N 35°35' E 139°50'0 0.0
2016-Aug-24 10:20N 35°35' E 139°50'0 0.0
2016-Aug-24 09:23N 35°35' E 139°50'1 0.7
2016-Aug-24 08:33N 35°34' E 139°50'0 0.0
2016-Aug-24 07:30N 35°34' E 139°50'0 0.0
2016-Aug-24 06:33N 35°34' E 139°50'0 0.0
2016-Aug-24 04:33N 35°34' E 139°50'0 0.1
2016-Aug-24 03:30N 35°34' E 139°50'1 0.8
2016-Aug-24 02:33N 35°35' E 139°49'0 0.5
2016-Aug-24 01:30N 35°35' E 139°50'0 0.0
2016-Aug-24 00:33N 35°35' E 139°50'0 0.0
2016-Aug-23 23:30N 35°35' E 139°49'0 0.0
2016-Aug-23 22:33N 35°35' E 139°49'0 0.0
2016-Aug-23 21:30N 35°35' E 139°49'0 0.0
2016-Aug-23 20:27N 35°35' E 139°49'0 0.0
2016-Aug-23 19:33N 35°35' E 139°49'0 0.0
2016-Aug-23 18:33N 35°35' E 139°49'0 0.0
2016-Aug-23 17:30N 35°35' E 139°49'0 0.0
2016-Aug-23 16:33N 35°35' E 139°49'0 0.0
2016-Aug-23 15:24N 35°35' E 139°49'0 0.0
2016-Aug-23 14:30N 35°35' E 139°49'0 0.0
2016-Aug-23 13:33N 35°35' E 139°49'0 0.0
2016-Aug-23 12:30N 35°35' E 139°49'0 0.0
2016-Aug-23 11:27N 35°35' E 139°49'0 0.0
2016-Aug-23 10:33N 35°35' E 139°49'0 0.0
2016-Aug-23 09:33N 35°35' E 139°49'0 0.0
2016-Aug-23 08:33N 35°35' E 139°49'1 0.6
2016-Aug-23 07:31N 35°35' E 139°50'0 0.0
2016-Aug-23 06:31N 35°35' E 139°50'0 0.4
2016-Aug-23 05:33N 35°35' E 139°50'0 0.4
2016-Aug-23 04:33N 35°35' E 139°50'0 0.0
2016-Aug-23 03:27N 35°35' E 139°49'0 0.0
2016-Aug-23 02:33N 35°35' E 139°49'0 0.1
2016-Aug-23 01:30N 35°35' E 139°49'0 0.1
2016-Aug-23 00:27N 35°35' E 139°49'1 1.0
2016-Aug-22 23:33N 35°35' E 139°50'2 2.0
2016-Aug-22 22:30N 35°37' E 139°48'0 0.1
2016-Aug-22 21:27N 35°37' E 139°48'4 4.0
2016-Aug-22 20:33N 35°36' E 139°53'7 5.8
2016-Aug-22 19:24N 35°41' E 139°59'0 0.0
2016-Aug-22 18:27N 35°41' E 139°59'0 0.0
2016-Aug-22 17:33N 35°41' E 139°59'0 0.0
2016-Aug-22 16:33N 35°41' E 139°59'0 0.0
2016-Aug-22 15:33N 35°41' E 139°59'0 0.0
2016-Aug-22 14:33N 35°41' E 139°59'0 0.0
2016-Aug-22 13:21N 35°41' E 139°59'0 0.0
2016-Aug-22 12:33N 35°41' E 139°59'0 0.0
2016-Aug-22 11:33N 35°41' E 139°59'0 0.0
2016-Aug-22 10:30N 35°41' E 139°59'0 0.0
2016-Aug-22 09:30N 35°41' E 139°59'0 0.0
2016-Aug-22 08:33N 35°41' E 139°59'0 0.0
2016-Aug-22 07:33N 35°41' E 139°59'0 0.0
2016-Aug-22 06:30N 35°41' E 139°59'0 0.0
2016-Aug-22 05:27N 35°41' E 139°59'0 0.0
2016-Aug-22 04:33N 35°41' E 139°59'0 0.0
2016-Aug-22 03:27N 35°41' E 139°59'0 0.0
2016-Aug-22 02:33N 35°41' E 139°59'0 0.0
2016-Aug-22 01:27N 35°41' E 139°59'0 0.0
2016-Aug-22 00:33N 35°41' E 139°59'0 0.0
2016-Aug-21 23:33N 35°41' E 139°59'0 0.0
2016-Aug-21 22:27N 35°41' E 139°59'0 0.0
2016-Aug-21 21:21N 35°41' E 139°59'0 0.0
2016-Aug-21 20:33N 35°41' E 139°59'0 0.0
2016-Aug-21 19:30N 35°41' E 139°59'0 0.0
2016-Aug-21 18:33N 35°41' E 139°59'0 0.0
2016-Aug-21 17:30N 35°41' E 139°59'0 0.0
2016-Aug-21 16:33N 35°41' E 139°59'0 0.0
2016-Aug-21 15:33N 35°41' E 139°59'0 0.0
2016-Aug-21 14:27N 35°41' E 139°59'0 0.0
2016-Aug-21 13:33N 35°41' E 139°59'0 0.0
2016-Aug-21 12:21N 35°41' E 139°59'0 0.0
2016-Aug-21 11:27N 35°41' E 139°59'0 0.0
2016-Aug-21 10:33N 35°41' E 139°59'0 0.0
2016-Aug-21 09:33N 35°41' E 139°59'0 0.0
2016-Aug-21 08:33N 35°41' E 139°59'0 0.0
2016-Aug-21 07:27N 35°41' E 139°59'0 0.0
2016-Aug-21 06:33N 35°41' E 139°59'0 0.0
2016-Aug-21 05:33N 35°41' E 139°59'0 0.0
2016-Aug-21 04:33N 35°41' E 139°59'0 0.0
2016-Aug-21 03:30N 35°41' E 139°59'0 0.0
2016-Aug-21 02:33N 35°41' E 139°59'8 7.9
2016-Aug-21 01:33N 35°36' E 139°51'2 1.6
2016-Aug-21 00:32N 35°37' E 139°49'1 1.4
2016-Aug-20 23:33N 35°36' E 139°50'1 1.1
2016-Aug-20 22:33N 35°35' E 139°49'0 0.0
2016-Aug-20 21:29N 35°35' E 139°49'0 0.0
2016-Aug-20 20:32N 35°35' E 139°49'0 0.0
2016-Aug-20 19:33N 35°35' E 139°49'0 0.0
2016-Aug-20 18:29N 35°35' E 139°49'0 0.0
2016-Aug-20 17:32N 35°35' E 139°49'0 0.0
2016-Aug-20 16:32N 35°35' E 139°49'0 0.0
2016-Aug-20 15:29N 35°35' E 139°49'0 0.0
2016-Aug-20 14:32N 35°35' E 139°49'0 0.0
2016-Aug-20 13:30N 35°35' E 139°49'0 0.0
2016-Aug-20 12:27N 35°35' E 139°49'0 0.0
2016-Aug-20 11:32N 35°35' E 139°49'0 0.0
2016-Aug-20 10:32N 35°35' E 139°49'0 0.0
2016-Aug-20 09:32N 35°35' E 139°49'0 0.0
2016-Aug-20 08:33N 35°35' E 139°49'0 0.0
2016-Aug-20 07:33N 35°35' E 139°49'1 0.8
2016-Aug-20 06:33N 35°35' E 139°50'1 0.9
2016-Aug-20 05:33N 35°36' E 139°51'5 4.7
2016-Aug-20 04:33N 35°36' E 139°57'4 3.3
2016-Aug-20 03:30N 35°38' E 140°01'0 0.1
2016-Aug-20 02:30N 35°38' E 140°01'3 3.4
2016-Aug-20 01:33N 35°36' E 139°58'3 3.3
2016-Aug-20 00:33N 35°35' E 139°54'3 3.1
2016-Aug-19 23:33N 35°35' E 139°50'1 1.2
2016-Aug-19 22:30N 35°36' E 139°51'0 0.0
2016-Aug-19 21:33N 35°36' E 139°51'2 1.8
2016-Aug-19 20:32N 35°37' E 139°49'0 0.0
2016-Aug-19 19:32N 35°37' E 139°49'0 0.0
2016-Aug-19 18:29N 35°37' E 139°49'0 0.0
2016-Aug-19 17:29N 35°37' E 139°49'0 0.0
2016-Aug-19 16:29N 35°37' E 139°49'0 0.0
2016-Aug-19 15:32N 35°37' E 139°49'0 0.0
2016-Aug-19 14:32N 35°37' E 139°49'0 0.0
2016-Aug-19 13:29N 35°37' E 139°49'0 0.0
2016-Aug-19 12:32N 35°37' E 139°49'0 0.0
2016-Aug-19 11:20N 35°37' E 139°49'0 0.0
2016-Aug-19 10:20N 35°37' E 139°49'1 0.8
2016-Aug-19 09:33N 35°37' E 139°50'7 7.0
2016-Aug-19 08:32N 35°36' E 139°58'3 2.6
2016-Aug-19 07:31N 35°38' E 140°01'0 0.0
2016-Aug-19 06:28N 35°38' E 140°01'4 4.4
2016-Aug-19 05:33N 35°36' E 139°56'4 4.3
2016-Aug-19 04:33N 35°35' E 139°51'1 1.3
2016-Aug-19 03:31N 35°35' E 139°49'2 1.8
2016-Aug-19 02:32N 35°36' E 139°51'5 5.0
2016-Aug-19 01:32N 35°36' E 139°58'3 3.2
2016-Aug-19 00:34N 35°38' E 140°01'0 0.1
2016-Aug-18 23:34N 35°38' E 140°01'4 4.1
2016-Aug-18 22:33N 35°35' E 139°57'6 5.6
2016-Aug-18 21:32N 35°35' E 139°49'0 0.0
2016-Aug-18 20:33N 35°35' E 139°49'0 0.0
2016-Aug-18 19:30N 35°35' E 139°49'0 0.0
2016-Aug-18 18:33N 35°35' E 139°49'0 0.0
2016-Aug-18 17:24N 35°35' E 139°49'0 0.0
2016-Aug-18 16:33N 35°35' E 139°49'0 0.0
2016-Aug-18 15:33N 35°35' E 139°49'0 0.0
2016-Aug-18 14:33N 35°35' E 139°49'0 0.0
2016-Aug-18 13:33N 35°35' E 139°49'0 0.0
2016-Aug-18 12:33N 35°35' E 139°49'0 0.0
2016-Aug-18 11:33N 35°35' E 139°49'0 0.0
2016-Aug-18 10:33N 35°35' E 139°49'0 0.0
2016-Aug-18 09:12N 35°35' E 139°49'0 0.0
2016-Aug-18 08:30N 35°35' E 139°49'0 0.0
2016-Aug-18 07:33N 35°35' E 139°49'0 0.0
2016-Aug-18 06:24N 35°35' E 139°49'3 3.3
2016-Aug-18 05:33N 35°35' E 139°53'7 6.7
2016-Aug-18 04:33N 35°37' E 140°01'1 0.9
2016-Aug-18 03:33N 35°38' E 140°01'0 0.1
2016-Aug-18 02:31N 35°37' E 140°01'3 3.6
2016-Aug-18 01:33N 35°36' E 139°57'3 2.8
2016-Aug-18 00:32N 35°36' E 139°54'3 3.1
2016-Aug-17 23:33N 35°35' E 139°50'1 1.4
2016-Aug-17 22:34N 35°35' E 139°52'6 6.2
2016-Aug-17 21:33N 35°38' E 139°59'3 3.3
2016-Aug-17 20:33N 35°41' E 139°58'1 0.5
2016-Aug-17 19:30N 35°41' E 139°59'0 0.0
2016-Aug-17 18:30N 35°41' E 139°59'0 0.0
2016-Aug-17 17:30N 35°41' E 139°59'0 0.0
2016-Aug-17 16:30N 35°41' E 139°59'0 0.0
2016-Aug-17 15:33N 35°41' E 139°59'0 0.0
2016-Aug-17 14:30N 35°41' E 139°59'0 0.0
2016-Aug-17 13:30N 35°41' E 139°59'0 0.0
2016-Aug-17 12:24N 35°41' E 139°59'0 0.0
2016-Aug-17 11:21N 35°41' E 139°59'0 0.0
2016-Aug-17 10:30N 35°41' E 139°59'0 0.0
2016-Aug-17 09:24N 35°41' E 139°59'0 0.0
2016-Aug-17 08:12N 35°41' E 139°59'  

Dump ship's entire track history